Aviation Digital Data Service (ADDS)

Output produced by METARs form (1553 UTC 28 February 2015)
found at http://aviationweather.gov/adds/metars/
 
KLGA 281426Z 2814/0112 01005KT P6SM FEW250 
     FM281600 34006KT P6SM FEW250 
     FM281900 30006KT P6SM SCT250 
     FM010000 VRB04KT P6SM BKN200